Accueil
METAR-TAF:

METAR-TAF

Aéroports :

Aéroport d'Avignon-Provence

Avignon, France

latitude: 43-54-26N, longitude: 004-54-07E, altitude: 38 m

Observation

Le bulletin a été fait il y a 23 minutes, à 10:30 UTC
Vent 7 kt de nord/nord-ouest
Température 20°C
Humidité 64%
Pression 1023 hPa
Visibilité 10 km ou plus
pas de nuages en-dessous de 1500 mètres et pas de cumulonimbus.

METAR: LFMV 201030Z AUTO 34007KT CAVOK 20/13 Q1023 NOSIG

Heure: 12:53 (10:53 UTC)

Prévision

Le bulletin a été fait il y a 2 heures et 53 minutes, à 08:00 UTC
Prévision valable du 20 à 09 UTC au 21 à 09 UTC
Vent 8 kt de nord
Visibilité 10 km ou plus
pas de nuages en-dessous de 1500 mètres et pas de cumulonimbus.
Evoluant progressivement
du 21 à 08 UTC au 21 à 09 UTC
Vent 13 kt de nord

TAF: LFMV 200800Z 2009/2109 35008KT CAVOK BECMG 2108/2109 35013KT

Observations et prévisions météorologiques de plus de 4000 aéroports (messages METAR et TAF).

Les stations disponibles sont représentées par des disques jaunes et rouges sur la carte.

Passer la souris dessus pour voir le nom de la station.

Cliquer dessus pour voir les observations et prévisions météorologiques.

Pour changer de carte: cliquez sur les boutons verts avec une croix noire pour zoomer, sur le bouton vert avec un tiret pour effectuer un zoom arrière, ou sur les flèches vertes pour les cartes adjacentes.


METAR-TAF: